Time;durP1;ratioP1;P1;durP2;ratioP2;P2;SDS_P1;SDS_P2;PMS_P1;PMS_P2;Temp;Humidity;BMP_temperature;BMP_pressure;BME280_temperature;BME280_humidity;BME280_pressure;Samples;Min_cycle;Max_cycle;Signal;HPM_P1;HPM_P2
2022/10/25 00:00:02;;;;;;;;;;;12.40;99.90;;;;;;5073981;28;19924;-69
2022/10/25 00:02:33;;;;;;;;;;;12.40;99.90;;;;;;5074603;28;19925;-68
2022/10/25 00:04:58;;;;;;;;;;;12.40;99.90;;;;;;5074649;28;20446;-68
2022/10/25 00:07:24;;;;;;;;;;;12.40;99.90;;;;;;5107245;28;19959;-69
2022/10/25 00:09:49;;;;;;;;;;;12.30;99.90;;;;;;5073752;28;19925;-68
2022/10/25 00:12:15;;;;;;;;;;;12.30;99.90;;;;;;5073390;28;19978;-69
2022/10/25 00:14:41;;;;;;;;;;;12.30;99.90;;;;;;5074686;28;20387;-69
2022/10/25 00:17:06;;;;;;;;;;;12.30;99.90;;;;;;5089807;28;19924;-70
2022/10/25 00:19:32;;;;;;;;;;;12.30;99.90;;;;;;5073049;28;19924;-69
2022/10/25 00:21:57;;;;;;;;;;;12.30;99.90;;;;;;5073587;28;20329;-69
2022/10/25 00:24:23;;;;;;;;;;;12.10;99.90;;;;;;5106902;28;19925;-68
2022/10/25 00:26:49;;;;;;;;;;;12.30;99.90;;;;;;5074404;28;19928;-69
2022/10/25 00:29:15;;;;;;;;;;;12.20;99.90;;;;;;5072736;28;19924;-73
2022/10/25 00:31:41;;;;;;;;;;;12.20;99.90;;;;;;5074174;28;19979;-68
2022/10/25 00:34:06;;;;;;;;;;;12.20;99.90;;;;;;5074362;28;19925;-68
2022/10/25 00:36:32;;;;;;;;;;;12.20;99.90;;;;;;5106271;28;19939;-68
2022/10/25 00:38:58;;;;;;;;;;;12.20;99.90;;;;;;5073271;28;19924;-68
2022/10/25 00:41:25;;;;;;;;;;;12.10;99.90;;;;;;5089352;28;19924;-67
2022/10/25 00:43:51;;;;;;;;;;;12.10;99.90;;;;;;5106934;28;20011;-68
2022/10/25 00:46:22;;;;;;;;;;;12.20;99.90;;;;;;5072721;28;19974;-72
2022/10/25 00:49:00;;;;;;;;;;;12.20;99.90;;;;;;5072645;28;20303;-68
2022/10/25 00:51:40;;;;;;;;;;;12.20;99.90;;;;;;5071826;28;20334;-68
2022/10/25 00:54:07;;;;;;;;;;;12.20;99.90;;;;;;5089789;28;19925;-69
2022/10/25 00:56:33;;;;;;;;;;;12.20;99.90;;;;;;5073530;28;20321;-68
2022/10/25 00:59:00;;;;;;;;;;;12.30;99.90;;;;;;5106400;28;19925;-68
2022/10/25 01:01:26;;;;;;;;;;;12.30;99.90;;;;;;5072085;28;19925;-68
2022/10/25 01:03:53;;;;;;;;;;;12.30;99.90;;;;;;5106681;28;20267;-68
2022/10/25 01:06:22;;;;;;;;;;;12.30;99.90;;;;;;5073650;28;19924;-73
2022/10/25 01:08:48;;;;;;;;;;;12.40;99.90;;;;;;5073602;28;19924;-68
2022/10/25 01:11:14;;;;;;;;;;;12.40;99.90;;;;;;5072396;28;19924;-69
2022/10/25 01:13:40;;;;;;;;;;;12.40;99.90;;;;;;5072127;28;19921;-69
2022/10/25 01:16:08;;;;;;;;;;;12.40;99.90;;;;;;5073702;28;20378;-68
2022/10/25 01:18:34;;;;;;;;;;;12.40;99.90;;;;;;5072099;28;19967;-69
2022/10/25 01:21:18;;;;;;;;;;;12.40;99.90;;;;;;5106470;28;20000;-69
2022/10/25 01:23:57;;;;;;;;;;;12.40;99.90;;;;;;5071270;28;20434;-70
2022/10/25 01:26:32;;;;;;;;;;;12.40;99.90;;;;;;5072944;28;19925;-70
2022/10/25 01:28:58;;;;;;;;;;;12.50;99.90;;;;;;5073205;28;19970;-68
2022/10/25 01:31:26;;;;;;;;;;;12.50;99.90;;;;;;5071781;28;20011;-73
2022/10/25 01:34:10;;;;;;;;;;;12.50;99.90;;;;;;5071928;28;19925;-70
2022/10/25 01:36:41;;;;;;;;;;;12.50;99.90;;;;;;5072469;28;19929;-69
2022/10/25 01:39:07;;;;;;;;;;;12.60;99.90;;;;;;5105644;28;19932;-68
2022/10/25 01:41:35;;;;;;;;;;;12.60;99.90;;;;;;5072413;28;20249;-69
2022/10/25 01:44:20;;;;;;;;;;;12.60;99.90;;;;;;5071397;28;20038;-69
2022/10/25 01:47:07;;;;;;;;;;;12.60;99.90;;;;;;5071104;28;19929;-68
2022/10/25 01:49:35;;;;;;;;;;;12.60;99.90;;;;;;5071549;28;20340;-70
2022/10/25 01:52:01;;;;;;;;;;;12.60;99.90;;;;;;5071328;28;19932;-69
2022/10/25 01:54:27;;;;;;;;;;;12.60;99.90;;;;;;5071842;28;20406;-67
2022/10/25 01:57:08;;;;;;;;;;;12.70;99.90;;;;;;5072625;28;19925;-67
2022/10/25 01:59:33;;;;;;;;;;;12.60;99.90;;;;;;5072020;28;19931;-68
2022/10/25 02:02:08;;;;;;;;;;;12.60;99.90;;;;;;5071206;28;20283;-69
2022/10/25 02:04:34;;;;;;;;;;;12.60;99.90;;;;;;5105243;28;20329;-70
2022/10/25 02:07:18;;;;;;;;;;;12.50;99.90;;;;;;5072423;28;19924;-68
2022/10/25 02:09:44;;;;;;;;;;;12.50;99.90;;;;;;5105198;28;19924;-68
2022/10/25 02:12:13;;;;;;;;;;;12.50;99.90;;;;;;5088225;28;19933;-68
2022/10/25 02:14:40;;;;;;;;;;;12.50;99.90;;;;;;5104964;28;20382;-69
2022/10/25 02:17:20;;;;;;;;;;;12.50;99.90;;;;;;5072253;28;19928;-68
2022/10/25 02:19:50;;;;;;;;;;;12.50;99.90;;;;;;5070933;28;19936;-68
2022/10/25 02:22:17;;;;;;;;;;;12.50;99.90;;;;;;5072386;28;19928;-69
2022/10/25 02:24:44;;;;;;;;;;;12.50;99.90;;;;;;5070204;28;20429;-68
2022/10/25 02:27:10;;;;;;;;;;;12.60;99.90;;;;;;5071132;28;19928;-68
2022/10/25 02:29:36;;;;;;;;;;;12.60;99.90;;;;;;5070908;28;19967;-67
2022/10/25 02:32:03;;;;;;;;;;;12.60;99.90;;;;;;5072364;28;19998;-68
2022/10/25 02:34:28;;;;;;;;;;;12.50;99.90;;;;;;5071061;28;19924;-69
2022/10/25 02:36:54;;;;;;;;;;;12.50;99.90;;;;;;5104164;28;19932;-68
2022/10/25 02:39:21;;;;;;;;;;;12.50;99.90;;;;;;5072022;28;19998;-68
2022/10/25 02:41:46;;;;;;;;;;;12.50;99.90;;;;;;5071537;28;20001;-69
2022/10/25 02:44:12;;;;;;;;;;;12.60;99.90;;;;;;5070642;28;19924;-69
2022/10/25 02:46:38;;;;;;;;;;;12.60;99.90;;;;;;5087014;28;19924;-69
2022/10/25 02:49:04;;;;;;;;;;;12.60;99.90;;;;;;5071940;28;19947;-69
2022/10/25 02:51:29;;;;;;;;;;;12.60;99.90;;;;;;5071955;28;20019;-69
2022/10/25 02:53:55;;;;;;;;;;;12.60;99.90;;;;;;5071332;28;20309;-69
2022/10/25 02:56:21;;;;;;;;;;;12.60;99.90;;;;;;5087409;28;19924;-69
2022/10/25 02:58:47;;;;;;;;;;;12.70;99.90;;;;;;5070454;28;19967;-70
2022/10/25 03:01:14;;;;;;;;;;;12.70;99.90;;;;;;5071813;28;19931;-67
2022/10/25 03:03:40;;;;;;;;;;;12.70;99.90;;;;;;5070368;28;20025;-68
2022/10/25 03:06:06;;;;;;;;;;;12.70;99.90;;;;;;5070737;28;19932;-72
2022/10/25 03:08:32;;;;;;;;;;;12.70;99.90;;;;;;5071656;28;19943;-68
2022/10/25 03:10:57;;;;;;;;;;;12.80;99.90;;;;;;5070075;28;19936;-68
2022/10/25 03:13:23;;;;;;;;;;;12.80;99.90;;;;;;5087846;28;19997;-69
2022/10/25 03:15:48;;;;;;;;;;;12.80;99.90;;;;;;5074212;28;19971;-68
2022/10/25 03:18:14;;;;;;;;;;;12.80;99.90;;;;;;5074718;28;20011;-68
2022/10/25 03:20:40;;;;;;;;;;;12.90;99.90;;;;;;5107741;28;19924;-69
2022/10/25 03:23:06;;;;;;;;;;;12.80;99.90;;;;;;5075614;28;19931;-68
2022/10/25 03:25:31;;;;;;;;;;;12.80;99.90;;;;;;5091537;28;20340;-68
2022/10/25 03:27:59;;;;;;;;;;;12.80;99.90;;;;;;5108067;28;19924;-68
2022/10/25 03:30:25;;;;;;;;;;;12.70;99.90;;;;;;5075548;28;19924;-68
2022/10/25 03:32:51;;;;;;;;;;;12.70;99.90;;;;;;5074837;28;20299;-68
2022/10/25 03:35:16;;;;;;;;;;;12.70;99.90;;;;;;5075284;28;19935;-68
2022/10/25 03:37:42;;;;;;;;;;;12.60;99.90;;;;;;5107805;28;20019;-71
2022/10/25 03:40:08;;;;;;;;;;;12.70;99.90;;;;;;5075101;28;20011;-68
2022/10/25 03:42:33;;;;;;;;;;;12.70;99.90;;;;;;5108280;28;20367;-67
2022/10/25 03:44:59;;;;;;;;;;;12.60;99.90;;;;;;5072720;28;19920;-68
2022/10/25 03:47:25;;;;;;;;;;;12.60;99.90;;;;;;5073412;28;19951;-68
2022/10/25 03:49:50;;;;;;;;;;;12.70;99.90;;;;;;5105972;28;19924;-69
2022/10/25 03:52:16;;;;;;;;;;;12.60;99.90;;;;;;5072410;28;19936;-71
2022/10/25 03:54:42;;;;;;;;;;;12.60;99.90;;;;;;5089324;28;19947;-72
2022/10/25 03:57:07;;;;;;;;;;;12.60;99.90;;;;;;5106382;28;19924;-70
2022/10/25 03:59:33;;;;;;;;;;;12.60;99.90;;;;;;5106284;28;19924;-68
2022/10/25 04:01:59;;;;;;;;;;;12.50;99.90;;;;;;5072273;28;19950;-68
2022/10/25 04:04:25;;;;;;;;;;;12.50;99.90;;;;;;5072615;28;20428;-69
2022/10/25 04:06:50;;;;;;;;;;;12.50;99.90;;;;;;5088808;28;19964;-68
2022/10/25 04:09:16;;;;;;;;;;;12.60;99.90;;;;;;5073431;28;19983;-68
2022/10/25 04:11:41;;;;;;;;;;;12.60;99.90;;;;;;5105929;28;19924;-72
2022/10/25 04:14:07;;;;;;;;;;;12.60;99.90;;;;;;5071956;28;19924;-68
2022/10/25 04:16:32;;;;;;;;;;;12.60;99.90;;;;;;5106075;28;20383;-68
2022/10/25 04:18:58;;;;;;;;;;;12.60;99.90;;;;;;5088721;28;19924;-68
2022/10/25 04:21:24;;;;;;;;;;;12.60;99.90;;;;;;5088965;28;19924;-68
2022/10/25 04:23:49;;;;;;;;;;;12.50;99.90;;;;;;5072748;28;19924;-68
2022/10/25 04:26:17;;;;;;;;;;;12.60;99.90;;;;;;5105589;28;19928;-67
2022/10/25 04:28:43;;;;;;;;;;;12.50;99.90;;;;;;5105197;28;19936;-67
2022/10/25 04:31:09;;;;;;;;;;;12.50;99.90;;;;;;5072989;28;20023;-67
2022/10/25 04:33:35;;;;;;;;;;;12.50;99.90;;;;;;5073043;28;20053;-67
2022/10/25 04:36:00;;;;;;;;;;;12.50;99.90;;;;;;5105184;28;19924;-68
2022/10/25 04:38:26;;;;;;;;;;;12.50;99.90;;;;;;5073243;28;19932;-70
2022/10/25 04:40:52;;;;;;;;;;;12.40;99.90;;;;;;5072629;28;19925;-69
2022/10/25 04:43:17;;;;;;;;;;;12.40;99.90;;;;;;5071820;28;19924;-68
2022/10/25 04:45:43;;;;;;;;;;;12.40;99.90;;;;;;5008817;28;1787103;-68
2022/10/25 04:48:09;;;;;;;;;;;12.40;99.90;;;;;;5073749;28;20018;-68
2022/10/25 04:50:36;;;;;;;;;;;12.40;99.90;;;;;;5089586;28;19969;-68
2022/10/25 04:53:01;;;;;;;;;;;12.40;99.90;;;;;;5072472;28;19924;-68
2022/10/25 04:55:27;;;;;;;;;;;12.40;99.90;;;;;;5073267;28;19924;-68
2022/10/25 04:57:52;;;;;;;;;;;12.40;99.90;;;;;;5073533;28;19947;-68
2022/10/25 05:00:18;;;;;;;;;;;12.40;99.90;;;;;;5106497;28;19978;-68
2022/10/25 05:02:43;;;;;;;;;;;12.30;99.90;;;;;;5073770;28;19933;-70
2022/10/25 05:05:09;;;;;;;;;;;12.30;99.90;;;;;;5073536;28;20618;-68
2022/10/25 05:07:34;;;;;;;;;;;12.30;99.90;;;;;;5073491;28;19932;-68
2022/10/25 05:10:00;;;;;;;;;;;12.30;99.90;;;;;;5073101;28;19925;-68
2022/10/25 05:12:25;;;;;;;;;;;12.30;99.90;;;;;;5089450;28;20026;-68
2022/10/25 05:14:51;;;;;;;;;;;12.30;99.90;;;;;;5073184;28;19925;-73
2022/10/25 05:17:17;;;;;;;;;;;12.30;99.90;;;;;;5073439;28;20407;-68
2022/10/25 05:19:42;;;;;;;;;;;12.30;99.90;;;;;;5072590;28;19924;-69
2022/10/25 05:22:08;;;;;;;;;;;12.30;99.90;;;;;;5071891;28;19932;-69
2022/10/25 05:24:34;;;;;;;;;;;12.30;99.90;;;;;;5071960;28;19930;-69
2022/10/25 05:26:59;;;;;;;;;;;12.30;99.90;;;;;;5072913;28;19928;-68
2022/10/25 05:29:25;;;;;;;;;;;12.20;99.90;;;;;;5073299;28;20015;-68
2022/10/25 05:31:50;;;;;;;;;;;12.20;99.90;;;;;;5073003;28;19924;-68
2022/10/25 05:34:16;;;;;;;;;;;12.30;99.90;;;;;;5072628;28;19928;-69
2022/10/25 05:36:42;;;;;;;;;;;12.30;99.90;;;;;;5087868;28;19925;-70
2022/10/25 05:39:07;;;;;;;;;;;12.30;99.90;;;;;;5072744;28;19925;-69
2022/10/25 05:41:33;;;;;;;;;;;12.30;99.90;;;;;;5072843;28;19924;-70
2022/10/25 05:43:58;;;;;;;;;;;12.30;99.90;;;;;;5071001;28;20307;-71
2022/10/25 05:46:24;;;;;;;;;;;12.40;99.90;;;;;;5088283;28;19928;-70
2022/10/25 05:48:50;;;;;;;;;;;12.70;99.90;;;;;;5072669;28;20337;-70
2022/10/25 05:51:18;;;;;;;;;;;12.40;99.90;;;;;;5105443;28;19979;-70
2022/10/25 05:53:44;;;;;;;;;;;12.40;99.90;;;;;;5105400;28;20431;-70
2022/10/25 05:56:11;;;;;;;;;;;12.40;99.90;;;;;;5070653;28;19931;-71
2022/10/25 05:58:37;;;;;;;;;;;12.40;99.90;;;;;;5088662;28;19924;-71
2022/10/25 06:01:02;;;;;;;;;;;12.50;99.90;;;;;;5087823;28;19974;-71
2022/10/25 06:03:28;;;;;;;;;;;12.50;99.90;;;;;;5088750;28;20421;-70
2022/10/25 06:05:53;;;;;;;;;;;12.50;99.90;;;;;;5072517;28;20037;-70
2022/10/25 06:08:19;;;;;;;;;;;12.50;99.90;;;;;;5072234;28;19925;-70
2022/10/25 06:10:45;;;;;;;;;;;12.60;99.90;;;;;;5072729;28;19928;-70
2022/10/25 06:13:10;;;;;;;;;;;12.60;99.90;;;;;;5105507;28;20322;-68
2022/10/25 06:15:39;;;;;;;;;;;12.50;99.90;;;;;;5072328;28;19972;-69
2022/10/25 06:18:04;;;;;;;;;;;12.50;99.90;;;;;;5104881;28;20008;-69
2022/10/25 06:20:30;;;;;;;;;;;12.50;99.90;;;;;;5088057;28;19976;-67
2022/10/25 06:22:55;;;;;;;;;;;12.50;99.90;;;;;;5071217;28;19931;-68
2022/10/25 06:25:21;;;;;;;;;;;12.50;99.90;;;;;;5087468;28;20019;-66
2022/10/25 06:27:46;;;;;;;;;;;12.40;99.90;;;;;;5071297;28;19925;-67
2022/10/25 06:30:12;;;;;;;;;;;12.40;99.90;;;;;;5070638;28;19948;-68
2022/10/25 06:32:37;;;;;;;;;;;12.40;99.90;;;;;;5072307;28;19925;-66
2022/10/25 06:35:03;;;;;;;;;;;12.40;99.90;;;;;;5071875;28;19924;-67
2022/10/25 06:37:29;;;;;;;;;;;12.40;99.90;;;;;;5087958;28;20011;-68
2022/10/25 06:39:54;;;;;;;;;;;12.40;99.90;;;;;;5087562;28;19928;-67
2022/10/25 06:42:20;;;;;;;;;;;12.40;99.90;;;;;;5087212;28;20118;-67
2022/10/25 06:44:45;;;;;;;;;;;12.40;99.90;;;;;;5071791;28;19924;-69
2022/10/25 06:47:11;;;;;;;;;;;12.30;99.90;;;;;;5070387;28;19924;-68
2022/10/25 06:49:37;;;;;;;;;;;12.40;99.90;;;;;;5070738;28;19931;-70
2022/10/25 06:52:02;;;;;;;;;;;12.40;99.90;;;;;;5087319;28;19932;-71
2022/10/25 06:54:28;;;;;;;;;;;12.40;99.90;;;;;;5104230;28;19925;-69
2022/10/25 06:56:53;;;;;;;;;;;12.40;99.90;;;;;;5087600;28;20375;-69
2022/10/25 06:59:19;;;;;;;;;;;12.40;99.90;;;;;;5070724;28;19925;-69
2022/10/25 07:01:45;;;;;;;;;;;12.40;99.90;;;;;;5072264;28;20256;-69
2022/10/25 07:04:11;;;;;;;;;;;12.50;99.90;;;;;;5087257;28;19924;-70
2022/10/25 07:06:36;;;;;;;;;;;12.70;99.90;;;;;;5071039;28;19931;-70
2022/10/25 07:09:03;;;;;;;;;;;12.70;99.90;;;;;;5070791;28;20014;-69
2022/10/25 07:11:30;;;;;;;;;;;12.70;99.90;;;;;;5086957;28;19932;-70
2022/10/25 07:13:57;;;;;;;;;;;12.60;99.90;;;;;;5070881;28;19976;-69
2022/10/25 07:16:23;;;;;;;;;;;12.80;99.90;;;;;;5086777;28;19931;-69
2022/10/25 07:18:49;;;;;;;;;;;12.90;99.90;;;;;;5104198;28;20023;-70
2022/10/25 07:21:16;;;;;;;;;;;13.20;99.90;;;;;;5070511;28;19975;-68
2022/10/25 07:23:42;;;;;;;;;;;13.70;99.90;;;;;;5071422;28;19932;-71
2022/10/25 07:26:08;;;;;;;;;;;13.90;99.90;;;;;;5071324;28;20297;-71
2022/10/25 07:28:33;;;;;;;;;;;13.90;99.90;;;;;;5064460;28;19920;-70
2022/10/25 07:30:59;;;;;;;;;;;14.20;99.90;;;;;;5069636;28;19925;-68
2022/10/25 07:33:24;;;;;;;;;;;14.70;99.90;;;;;;5071013;28;19935;-71
2022/10/25 07:35:50;;;;;;;;;;;15.30;99.90;;;;;;5070213;28;19931;-70
2022/10/25 07:38:16;;;;;;;;;;;;;;;;;;5071027;28;19983;-70
2022/10/25 07:40:41;;;;;;;;;;;15.90;99.90;;;;;;5069821;28;19929;-69
2022/10/25 07:43:07;;;;;;;;;;;17.10;99.90;;;;;;5070919;28;20011;-70
2022/10/25 07:45:33;;;;;;;;;;;17.40;99.90;;;;;;5070906;28;19928;-70
2022/10/25 07:47:59;;;;;;;;;;;17.20;99.90;;;;;;5071643;28;19924;-71
2022/10/25 07:50:25;;;;;;;;;;;16.80;99.90;;;;;;5103672;28;19940;-72
2022/10/25 07:52:50;;;;;;;;;;;16.40;99.90;;;;;;5070959;28;19931;-70
2022/10/25 07:55:16;;;;;;;;;;;16.10;99.90;;;;;;5070797;28;19928;-71
2022/10/25 07:57:42;;;;;;;;;;;15.80;99.90;;;;;;5070217;28;19924;-70
2022/10/25 08:00:08;;;;;;;;;;;15.60;99.90;;;;;;5070915;28;19931;-70
2022/10/25 08:02:34;;;;;;;;;;;15.50;99.90;;;;;;5107227;28;19930;-71
2022/10/25 08:05:00;;;;;;;;;;;15.30;99.90;;;;;;5074306;28;20369;-70
2022/10/25 08:07:27;;;;;;;;;;;15.30;99.90;;;;;;5107145;28;19924;-71
2022/10/25 08:09:52;;;;;;;;;;;15.60;99.90;;;;;;5074205;28;19924;-70
2022/10/25 08:12:18;;;;;;;;;;;16.10;99.90;;;;;;5073149;28;19932;-71
2022/10/25 08:14:43;;;;;;;;;;;16.80;99.90;;;;;;5107562;28;20307;-70
2022/10/25 08:17:09;;;;;;;;;;;;;;;;;;5074705;28;19935;-71
2022/10/25 08:19:35;;;;;;;;;;;17.20;99.90;;;;;;5072774;28;19928;-72
2022/10/25 08:22:01;;;;;;;;;;;18.30;99.90;;;;;;5089605;28;19928;-67
2022/10/25 08:24:26;;;;;;;;;;;18.60;99.90;;;;;;5073727;28;19924;-68
2022/10/25 08:26:52;;;;;;;;;;;18.70;99.90;;;;;;5071281;28;20023;-71
2022/10/25 08:29:17;;;;;;;;;;;19.10;99.90;;;;;;5073827;28;19928;-68
2022/10/25 08:31:43;;;;;;;;;;;18.90;99.90;;;;;;5074286;28;19924;-68
2022/10/25 08:34:08;;;;;;;;;;;18.50;99.90;;;;;;5107195;28;19931;-68
2022/10/25 08:36:34;;;;;;;;;;;18.00;99.90;;;;;;5074028;28;19920;-68
2022/10/25 08:39:00;;;;;;;;;;;17.50;99.90;;;;;;5074546;28;20263;-69
2022/10/25 08:41:41;;;;;;;;;;;17.00;99.90;;;;;;5073649;28;19924;-68
2022/10/25 08:44:12;;;;;;;;;;;16.60;99.90;;;;;;5073699;28;20041;-68
2022/10/25 08:46:38;;;;;;;;;;;16.30;99.90;;;;;;5071201;28;19936;-68
2022/10/25 08:49:18;;;;;;;;;;;16.20;99.90;;;;;;5073178;28;19924;-67
2022/10/25 08:51:46;;;;;;;;;;;16.10;99.90;;;;;;5106916;28;19986;-68
2022/10/25 08:54:26;;;;;;;;;;;16.00;99.90;;;;;;5073667;28;19947;-69
2022/10/25 08:56:56;;;;;;;;;;;15.90;99.90;;;;;;5072576;28;19924;-68
2022/10/25 08:59:25;;;;;;;;;;;15.90;99.90;;;;;;5073282;28;19972;-70
2022/10/25 09:01:53;;;;;;;;;;;15.80;99.90;;;;;;5073981;28;19985;-69
2022/10/25 09:04:20;;;;;;;;;;;15.80;99.90;;;;;;5072297;28;20039;-74
2022/10/25 09:07:05;;;;;;;;;;;15.70;99.90;;;;;;5106881;28;19928;-67
2022/10/25 09:09:49;;;;;;;;;;;15.70;99.90;;;;;;5071529;28;19932;-67
2022/10/25 09:12:27;;;;;;;;;;;15.70;99.90;;;;;;5072279;28;20035;-67
2022/10/25 09:15:02;;;;;;;;;;;15.70;99.90;;;;;;5073825;28;20231;-67
2022/10/25 09:17:33;;;;;;;;;;;15.80;99.90;;;;;;5073284;28;19925;-67
2022/10/25 09:20:04;;;;;;;;;;;15.80;99.90;;;;;;5073677;28;19924;-68
2022/10/25 09:22:35;;;;;;;;;;;15.70;99.90;;;;;;5072990;28;20265;-67
2022/10/25 09:25:05;;;;;;;;;;;15.70;99.90;;;;;;5072692;28;20287;-68
2022/10/25 09:27:42;;;;;;;;;;;15.70;99.90;;;;;;5072953;28;19925;-68
2022/10/25 09:30:09;;;;;;;;;;;15.70;99.90;;;;;;5073218;28;19976;-67
2022/10/25 09:32:39;;;;;;;;;;;15.70;99.90;;;;;;5071891;28;20256;-67
2022/10/25 09:35:06;;;;;;;;;;;15.60;99.90;;;;;;5072444;28;20330;-68
2022/10/25 09:37:40;;;;;;;;;;;15.60;99.90;;;;;;5071464;28;19928;-68
2022/10/25 09:40:11;;;;;;;;;;;15.50;99.90;;;;;;5105627;28;19990;-69
2022/10/25 09:42:43;;;;;;;;;;;15.40;99.90;;;;;;5069673;28;19932;-69
2022/10/25 09:45:18;;;;;;;;;;;15.40;99.90;;;;;;5069442;28;20012;-68
2022/10/25 09:47:50;;;;;;;;;;;15.40;99.90;;;;;;5071338;28;20129;-68
2022/10/25 09:50:34;;;;;;;;;;;15.40;99.90;;;;;;5088297;28;19933;-68
2022/10/25 09:53:09;;;;;;;;;;;15.40;99.90;;;;;;5072318;28;19947;-68
2022/10/25 09:55:38;;;;;;;;;;;15.40;99.90;;;;;;5105444;28;19934;-68
2022/10/25 09:58:04;;;;;;;;;;;15.40;99.90;;;;;;5072447;28;19971;-68
2022/10/25 10:00:31;;;;;;;;;;;15.40;99.90;;;;;;5105416;28;20331;-69
2022/10/25 10:02:58;;;;;;;;;;;15.50;99.90;;;;;;5071473;28;19925;-68
2022/10/25 10:05:23;;;;;;;;;;;15.50;99.90;;;;;;5072923;28;20110;-69
2022/10/25 10:07:49;;;;;;;;;;;15.50;99.90;;;;;;5071929;28;19990;-69
2022/10/25 10:10:19;;;;;;;;;;;15.40;99.90;;;;;;5071048;28;19928;-68
2022/10/25 10:13:04;;;;;;;;;;;15.40;99.90;;;;;;5104960;28;19928;-68
2022/10/25 10:15:31;;;;;;;;;;;15.40;99.90;;;;;;5072065;28;20333;-68
2022/10/25 10:18:15;;;;;;;;;;;15.40;99.90;;;;;;5072288;28;19924;-68
2022/10/25 10:20:54;;;;;;;;;;;15.40;99.90;;;;;;5071967;28;19955;-68
2022/10/25 10:23:19;;;;;;;;;;;15.40;99.90;;;;;;5088169;28;19924;-67
2022/10/25 10:25:45;;;;;;;;;;;15.30;99.90;;;;;;5070974;28;20262;-68
2022/10/25 10:28:12;;;;;;;;;;;15.30;99.90;;;;;;5071932;28;19924;-68
2022/10/25 10:30:38;;;;;;;;;;;15.30;99.90;;;;;;5070681;28;19925;-69
2022/10/25 10:33:08;;;;;;;;;;;15.30;99.90;;;;;;5071819;28;20303;-69
2022/10/25 10:35:35;;;;;;;;;;;15.40;99.90;;;;;;5071574;28;20295;-70
2022/10/25 10:38:13;;;;;;;;;;;15.40;99.90;;;;;;5072018;28;19924;-69
2022/10/25 10:40:38;;;;;;;;;;;15.40;99.90;;;;;;5071719;28;19929;-69
2022/10/25 10:43:30;;;;;;;;;;;15.60;99.90;;;;;;5104656;28;19981;-69
2022/10/25 10:46:01;;;;;;;;;;;15.60;99.90;;;;;;5071001;28;19924;-69
2022/10/25 10:48:30;;;;;;;;;;;15.60;99.90;;;;;;5104698;28;20415;-69
2022/10/25 10:50:55;;;;;;;;;;;15.60;99.90;;;;;;5104503;28;20004;-71
2022/10/25 10:53:28;;;;;;;;;;;15.60;99.90;;;;;;5071897;28;20011;-70
2022/10/25 10:55:54;;;;;;;;;;;15.60;99.90;;;;;;5104211;28;19927;-71
2022/10/25 10:58:24;;;;;;;;;;;15.70;99.90;;;;;;5071434;28;20306;-70
2022/10/25 11:00:50;;;;;;;;;;;15.80;99.90;;;;;;5071208;28;19924;-69
2022/10/25 11:03:34;;;;;;;;;;;15.80;99.90;;;;;;5071359;28;19928;-68
2022/10/25 11:05:59;;;;;;;;;;;15.80;99.90;;;;;;5070807;28;19925;-68
2022/10/25 11:08:25;;;;;;;;;;;15.80;99.90;;;;;;5104560;28;19951;-69
2022/10/25 11:10:50;;;;;;;;;;;15.80;99.90;;;;;;5071773;28;19924;-68
2022/10/25 11:13:17;;;;;;;;;;;15.90;99.90;;;;;;5087411;28;19990;-69
2022/10/25 11:15:43;;;;;;;;;;;15.90;99.90;;;;;;5071341;28;19975;-69
2022/10/25 11:18:09;;;;;;;;;;;15.80;99.90;;;;;;5087506;28;19964;-71
2022/10/25 11:20:35;;;;;;;;;;;15.80;99.90;;;;;;5071640;28;20076;-69
2022/10/25 11:23:07;;;;;;;;;;;15.80;99.90;;;;;;5104170;28;20437;-70
2022/10/25 11:25:37;;;;;;;;;;;15.90;99.90;;;;;;5104069;28;20479;-69
2022/10/25 11:28:02;;;;;;;;;;;15.90;99.90;;;;;;5104520;28;20268;-68
2022/10/25 11:30:37;;;;;;;;;;;15.90;99.90;;;;;;5070397;28;19990;-67
2022/10/25 11:33:08;;;;;;;;;;;16.00;99.90;;;;;;5070696;28;19925;-70
2022/10/25 11:35:39;;;;;;;;;;;16.00;99.90;;;;;;5074231;28;19925;-68
2022/10/25 11:38:14;;;;;;;;;;;16.00;99.90;;;;;;5075746;28;20005;-68
2022/10/25 11:40:42;;;;;;;;;;;16.00;99.90;;;;;;5074038;28;19954;-67
2022/10/25 11:43:40;;;;;;;;;;;16.10;99.90;;;;;;5074116;28;19973;-67
2022/10/25 11:46:24;;;;;;;;;;;16.10;99.90;;;;;;5090995;28;20345;-68
2022/10/25 11:48:56;;;;;;;;;;;16.20;99.90;;;;;;5108213;28;19931;-67
2022/10/25 11:51:56;;;;;;;;;;;16.30;99.90;;;;;;5075274;28;19935;-67
2022/10/25 11:54:31;;;;;;;;;;;16.30;99.90;;;;;;5055767;28;19983;-67
2022/10/25 11:57:06;;;;;;;;;;;16.30;99.90;;;;;;5074480;28;19974;-68
2022/10/25 11:59:41;;;;;;;;;;;16.30;99.90;;;;;;5107929;28;19924;-68
2022/10/25 12:02:22;;;;;;;;;;;16.40;99.90;;;;;;5073186;28;19924;-68
2022/10/25 12:05:05;;;;;;;;;;;16.50;99.90;;;;;;5073409;28;20011;-68
2022/10/25 12:07:31;;;;;;;;;;;16.50;99.90;;;;;;5072292;28;19924;-68
2022/10/25 12:10:03;;;;;;;;;;;16.60;99.90;;;;;;5074586;28;20011;-68
2022/10/25 12:12:37;;;;;;;;;;;16.70;99.90;;;;;;5073521;28;19932;-67
2022/10/25 12:15:03;;;;;;;;;;;16.70;99.90;;;;;;5073206;28;20372;-67
2022/10/25 12:17:31;;;;;;;;;;;16.70;99.90;;;;;;5072787;28;19925;-68
2022/10/25 12:19:58;;;;;;;;;;;16.70;99.90;;;;;;5072565;28;20311;-68
2022/10/25 12:22:36;;;;;;;;;;;16.60;99.90;;;;;;5073076;28;19924;-68
2022/10/25 12:25:17;;;;;;;;;;;16.60;99.90;;;;;;5072746;28;19920;-68
2022/10/25 12:27:44;;;;;;;;;;;16.60;99.90;;;;;;5073205;28;19932;-68
2022/10/25 12:30:14;;;;;;;;;;;16.60;99.90;;;;;;5074645;28;19986;-68
2022/10/25 12:32:44;;;;;;;;;;;16.70;99.90;;;;;;5106830;28;20028;-68
2022/10/25 12:35:17;;;;;;;;;;;16.60;99.90;;;;;;5073121;28;19924;-68
2022/10/25 12:37:48;;;;;;;;;;;16.60;99.90;;;;;;5074601;28;19925;-68
2022/10/25 12:40:16;;;;;;;;;;;16.70;99.90;;;;;;5072447;28;20012;-69
2022/10/25 12:42:51;;;;;;;;;;;16.70;99.90;;;;;;5105868;28;19924;-68
2022/10/25 12:45:35;;;;;;;;;;;16.80;99.90;;;;;;5073692;28;19969;-67
2022/10/25 12:48:10;;;;;;;;;;;16.80;99.90;;;;;;5089261;28;20371;-66
2022/10/25 12:50:54;;;;;;;;;;;16.80;99.90;;;;;;5074535;28;20405;-67
2022/10/25 12:53:20;;;;;;;;;;;16.80;99.90;;;;;;5073397;28;19924;-68
2022/10/25 12:55:56;;;;;;;;;;;16.80;99.90;;;;;;5073684;28;19925;-67
2022/10/25 12:58:31;;;;;;;;;;;16.90;99.90;;;;;;5073047;28;19931;-67
2022/10/25 13:01:03;;;;;;;;;;;17.00;99.90;;;;;;5071901;28;19975;-67
2022/10/25 13:03:47;;;;;;;;;;;17.00;99.90;;;;;;5089552;28;19924;-67
2022/10/25 13:06:30;;;;;;;;;;;17.00;99.90;;;;;;5072556;28;19982;-67
2022/10/25 13:09:00;;;;;;;;;;;16.90;99.90;;;;;;5072969;28;19924;-69
2022/10/25 13:11:41;;;;;;;;;;;16.80;99.90;;;;;;5072428;28;20287;-68
2022/10/25 13:14:24;;;;;;;;;;;16.70;99.90;;;;;;5072376;28;19928;-68
2022/10/25 13:16:50;;;;;;;;;;;16.70;99.90;;;;;;5106272;28;19986;-68
2022/10/25 13:19:19;;;;;;;;;;;16.80;99.90;;;;;;5106550;28;20124;-68
2022/10/25 13:21:51;;;;;;;;;;;16.90;99.90;;;;;;5072383;28;20302;-68
2022/10/25 13:24:35;;;;;;;;;;;16.90;99.90;;;;;;5105888;28;19924;-68
2022/10/25 13:27:17;;;;;;;;;;;16.90;99.90;;;;;;5071943;28;19991;-69
2022/10/25 13:29:45;;;;;;;;;;;16.90;99.90;;;;;;5089174;28;20264;-69
2022/10/25 13:32:30;;;;;;;;;;;17.00;99.90;;;;;;5071955;28;19925;-69
2022/10/25 13:34:57;;;;;;;;;;;17.00;99.90;;;;;;5072056;28;19971;-69
2022/10/25 13:37:35;;;;;;;;;;;17.00;99.90;;;;;;5105609;28;20271;-70
2022/10/25 13:40:04;;;;;;;;;;;17.10;99.90;;;;;;5105717;28;19989;-68
2022/10/25 13:42:35;;;;;;;;;;;17.10;99.90;;;;;;5105563;28;19963;-68
2022/10/25 13:45:01;;;;;;;;;;;16.90;99.90;;;;;;5104053;28;20386;-68
2022/10/25 13:47:44;;;;;;;;;;;17.00;99.90;;;;;;5070822;28;20107;-67
2022/10/25 13:50:28;;;;;;;;;;;16.90;99.90;;;;;;5072588;28;19924;-67
2022/10/25 13:53:01;;;;;;;;;;;16.90;99.90;;;;;;5102854;28;19981;-69
2022/10/25 13:55:30;;;;;;;;;;;16.80;99.90;;;;;;5104906;28;19925;-67
2022/10/25 13:57:56;;;;;;;;;;;16.80;99.90;;;;;;5104867;28;20409;-71
2022/10/25 14:00:22;;;;;;;;;;;16.80;99.90;;;;;;5072382;28;20335;-67
2022/10/25 14:03:03;;;;;;;;;;;16.70;99.90;;;;;;5071474;28;20061;-67
2022/10/25 14:05:51;;;;;;;;;;;16.80;99.90;;;;;;5072475;28;19979;-67
2022/10/25 14:08:23;;;;;;;;;;;16.80;99.90;;;;;;5070544;28;19924;-67
2022/10/25 14:10:49;;;;;;;;;;;16.80;99.90;;;;;;5072558;28;19925;-66
2022/10/25 14:13:20;;;;;;;;;;;16.80;99.90;;;;;;5071263;28;20030;-66
2022/10/25 14:16:05;;;;;;;;;;;16.70;99.90;;;;;;5071007;28;20287;-66
2022/10/25 14:18:33;;;;;;;;;;;16.60;99.90;;;;;;5054519;28;19976;-66
2022/10/25 14:21:01;;;;;;;;;;;16.50;99.90;;;;;;5072161;28;19924;-70
2022/10/25 14:23:29;;;;;;;;;;;16.50;99.90;;;;;;5071084;28;19925;-68
2022/10/25 14:25:58;;;;;;;;;;;16.40;99.90;;;;;;5071202;28;19924;-66
2022/10/25 14:28:28;;;;;;;;;;;16.40;99.90;;;;;;5071041;28;20381;-66